sensor_id;sensor_type;location;lat;lon;timestamp;P1;durP1;ratioP1;P2;durP2;ratioP2
61112;SDS011;47184;57.998;56.184;2023-06-04T00:00:52;64.97;;;30.23;;
61112;SDS011;47184;57.998;56.184;2023-06-04T00:03:18;64.10;;;32.30;;
61112;SDS011;47184;57.998;56.184;2023-06-04T00:05:44;67.18;;;31.77;;
61112;SDS011;47184;57.998;56.184;2023-06-04T00:08:10;61.85;;;31.85;;
61112;SDS011;47184;57.998;56.184;2023-06-04T00:10:36;76.30;;;32.03;;
61112;SDS011;47184;57.998;56.184;2023-06-04T00:13:05;56.40;;;31.83;;
61112;SDS011;47184;57.998;56.184;2023-06-04T00:15:31;69.30;;;30.50;;
61112;SDS011;47184;57.998;56.184;2023-06-04T00:17:57;57.40;;;32.22;;
61112;SDS011;47184;57.998;56.184;2023-06-04T00:20:24;56.80;;;30.23;;
61112;SDS011;47184;57.998;56.184;2023-06-04T00:22:50;61.63;;;30.67;;
61112;SDS011;47184;57.998;56.184;2023-06-04T00:25:16;72.13;;;33.60;;
61112;SDS011;47184;57.998;56.184;2023-06-04T00:27:42;52.72;;;30.58;;
61112;SDS011;47184;57.998;56.184;2023-06-04T00:30:08;71.78;;;30.60;;
61112;SDS011;47184;57.998;56.184;2023-06-04T00:32:35;69.75;;;30.08;;
61112;SDS011;47184;57.998;56.184;2023-06-04T00:35:02;64.75;;;30.92;;
61112;SDS011;47184;57.998;56.184;2023-06-04T00:37:30;61.67;;;31.88;;
61112;SDS011;47184;57.998;56.184;2023-06-04T00:39:57;68.38;;;32.50;;
61112;SDS011;47184;57.998;56.184;2023-06-04T00:42:23;61.05;;;31.42;;
61112;SDS011;47184;57.998;56.184;2023-06-04T00:44:49;67.28;;;30.88;;
61112;SDS011;47184;57.998;56.184;2023-06-04T00:47:15;75.18;;;32.35;;
61112;SDS011;47184;57.998;56.184;2023-06-04T00:49:43;62.92;;;30.63;;
61112;SDS011;47184;57.998;56.184;2023-06-04T00:52:11;58.53;;;29.67;;
61112;SDS011;47184;57.998;56.184;2023-06-04T00:54:39;57.60;;;30.45;;
61112;SDS011;47184;57.998;56.184;2023-06-04T00:57:05;59.90;;;28.95;;
61112;SDS011;47184;57.998;56.184;2023-06-04T00:59:36;71.97;;;31.02;;
61112;SDS011;47184;57.998;56.184;2023-06-04T01:02:12;52.80;;;28.98;;
61112;SDS011;47184;57.998;56.184;2023-06-04T01:07:55;70.38;;;28.60;;
61112;SDS011;47184;57.998;56.184;2023-06-04T01:10:24;60.58;;;28.83;;
61112;SDS011;47184;57.998;56.184;2023-06-04T01:12:51;49.13;;;26.88;;
61112;SDS011;47184;57.998;56.184;2023-06-04T01:15:17;52.05;;;28.13;;
61112;SDS011;47184;57.998;56.184;2023-06-04T01:17:44;74.65;;;29.15;;
61112;SDS011;47184;57.998;56.184;2023-06-04T01:25:28;63.85;;;28.48;;
61112;SDS011;47184;57.998;56.184;2023-06-04T01:27:58;46.08;;;25.15;;
61112;SDS011;47184;57.998;56.184;2023-06-04T01:30:26;47.13;;;26.58;;
61112;SDS011;47184;57.998;56.184;2023-06-04T01:32:55;50.42;;;26.48;;
61112;SDS011;47184;57.998;56.184;2023-06-04T01:35:22;52.45;;;27.05;;
61112;SDS011;47184;57.998;56.184;2023-06-04T01:37:49;33.70;;;19.40;;
61112;SDS011;47184;57.998;56.184;2023-06-04T01:40:17;44.22;;;25.20;;
61112;SDS011;47184;57.998;56.184;2023-06-04T01:42:43;42.20;;;23.95;;
61112;SDS011;47184;57.998;56.184;2023-06-04T01:45:09;44.00;;;24.90;;
61112;SDS011;47184;57.998;56.184;2023-06-04T01:47:36;49.45;;;24.10;;
61112;SDS011;47184;57.998;56.184;2023-06-04T01:50:03;45.05;;;24.15;;
61112;SDS011;47184;57.998;56.184;2023-06-04T01:52:31;45.63;;;22.67;;
61112;SDS011;47184;57.998;56.184;2023-06-04T01:54:58;47.50;;;22.15;;
61112;SDS011;47184;57.998;56.184;2023-06-04T01:57:24;43.33;;;23.83;;
61112;SDS011;47184;57.998;56.184;2023-06-04T01:59:50;45.28;;;25.33;;
61112;SDS011;47184;57.998;56.184;2023-06-04T02:02:16;50.08;;;24.65;;
61112;SDS011;47184;57.998;56.184;2023-06-04T02:04:42;50.10;;;25.30;;
61112;SDS011;47184;57.998;56.184;2023-06-04T02:07:10;43.70;;;23.77;;
61112;SDS011;47184;57.998;56.184;2023-06-04T02:09:39;47.25;;;24.88;;
61112;SDS011;47184;57.998;56.184;2023-06-04T02:12:05;54.05;;;22.45;;
61112;SDS011;47184;57.998;56.184;2023-06-04T02:14:32;42.17;;;24.88;;
61112;SDS011;47184;57.998;56.184;2023-06-04T02:16:58;47.92;;;23.73;;
61112;SDS011;47184;57.998;56.184;2023-06-04T02:19:24;47.47;;;24.88;;
61112;SDS011;47184;57.998;56.184;2023-06-04T02:21:51;41.08;;;22.73;;
61112;SDS011;47184;57.998;56.184;2023-06-04T02:24:21;38.92;;;23.02;;
61112;SDS011;47184;57.998;56.184;2023-06-04T02:26:47;47.00;;;21.70;;
61112;SDS011;47184;57.998;56.184;2023-06-04T02:29:13;47.80;;;22.85;;
61112;SDS011;47184;57.998;56.184;2023-06-04T02:31:39;44.63;;;22.73;;
61112;SDS011;47184;57.998;56.184;2023-06-04T02:34:05;41.20;;;20.25;;
61112;SDS011;47184;57.998;56.184;2023-06-04T02:36:31;43.90;;;21.10;;
61112;SDS011;47184;57.998;56.184;2023-06-04T02:38:57;46.90;;;21.25;;
61112;SDS011;47184;57.998;56.184;2023-06-04T02:41:24;41.95;;;22.30;;
61112;SDS011;47184;57.998;56.184;2023-06-04T02:43:50;36.83;;;21.98;;
61112;SDS011;47184;57.998;56.184;2023-06-04T02:46:17;40.55;;;20.88;;
61112;SDS011;47184;57.998;56.184;2023-06-04T02:48:43;40.22;;;21.95;;
61112;SDS011;47184;57.998;56.184;2023-06-04T02:51:09;43.72;;;21.10;;
61112;SDS011;47184;57.998;56.184;2023-06-04T02:53:36;37.28;;;21.25;;
61112;SDS011;47184;57.998;56.184;2023-06-04T02:56:02;42.15;;;22.42;;
61112;SDS011;47184;57.998;56.184;2023-06-04T02:58:28;39.10;;;22.58;;
61112;SDS011;47184;57.998;56.184;2023-06-04T03:00:55;49.03;;;23.00;;
61112;SDS011;47184;57.998;56.184;2023-06-04T03:03:21;44.78;;;23.73;;
61112;SDS011;47184;57.998;56.184;2023-06-04T03:05:48;55.42;;;23.05;;
61112;SDS011;47184;57.998;56.184;2023-06-04T03:08:15;55.00;;;22.90;;
61112;SDS011;47184;57.998;56.184;2023-06-04T03:10:41;75.15;;;25.17;;
61112;SDS011;47184;57.998;56.184;2023-06-04T03:13:07;46.00;;;20.58;;
61112;SDS011;47184;57.998;56.184;2023-06-04T03:15:33;41.97;;;19.55;;
61112;SDS011;47184;57.998;56.184;2023-06-04T03:17:59;39.97;;;20.25;;
61112;SDS011;47184;57.998;56.184;2023-06-04T03:20:25;33.95;;;15.70;;
61112;SDS011;47184;57.998;56.184;2023-06-04T03:22:51;27.63;;;14.88;;
61112;SDS011;47184;57.998;56.184;2023-06-04T03:25:18;33.15;;;16.08;;
61112;SDS011;47184;57.998;56.184;2023-06-04T03:27:45;33.92;;;12.43;;
61112;SDS011;47184;57.998;56.184;2023-06-04T03:30:12;27.27;;;12.40;;
61112;SDS011;47184;57.998;56.184;2023-06-04T03:32:49;31.25;;;11.70;;
61112;SDS011;47184;57.998;56.184;2023-06-04T03:35:15;25.60;;;12.82;;
61112;SDS011;47184;57.998;56.184;2023-06-04T03:37:41;22.42;;;13.48;;
61112;SDS011;47184;57.998;56.184;2023-06-04T03:40:08;31.60;;;14.18;;
61112;SDS011;47184;57.998;56.184;2023-06-04T03:42:38;26.80;;;13.70;;
61112;SDS011;47184;57.998;56.184;2023-06-04T03:45:05;20.63;;;12.15;;
61112;SDS011;47184;57.998;56.184;2023-06-04T03:47:33;20.05;;;10.70;;
61112;SDS011;47184;57.998;56.184;2023-06-04T03:50:01;19.65;;;10.43;;
61112;SDS011;47184;57.998;56.184;2023-06-04T03:52:29;20.92;;;11.32;;
61112;SDS011;47184;57.998;56.184;2023-06-04T03:54:58;18.52;;;11.40;;
61112;SDS011;47184;57.998;56.184;2023-06-04T03:57:30;22.25;;;10.77;;
61112;SDS011;47184;57.998;56.184;2023-06-04T03:59:57;22.00;;;13.43;;
61112;SDS011;47184;57.998;56.184;2023-06-04T04:02:24;22.08;;;11.38;;
61112;SDS011;47184;57.998;56.184;2023-06-04T04:04:50;29.42;;;12.68;;
61112;SDS011;47184;57.998;56.184;2023-06-04T04:07:20;24.05;;;10.48;;
61112;SDS011;47184;57.998;56.184;2023-06-04T04:09:47;27.08;;;11.30;;
61112;SDS011;47184;57.998;56.184;2023-06-04T04:12:13;23.42;;;9.43;;
61112;SDS011;47184;57.998;56.184;2023-06-04T04:14:39;20.17;;;11.40;;
61112;SDS011;47184;57.998;56.184;2023-06-04T04:17:05;16.58;;;10.38;;
61112;SDS011;47184;57.998;56.184;2023-06-04T04:19:31;20.48;;;9.65;;
61112;SDS011;47184;57.998;56.184;2023-06-04T04:21:58;17.02;;;8.20;;
61112;SDS011;47184;57.998;56.184;2023-06-04T04:24:27;12.23;;;7.20;;
61112;SDS011;47184;57.998;56.184;2023-06-04T04:26:57;18.50;;;10.27;;
61112;SDS011;47184;57.998;56.184;2023-06-04T04:29:25;17.80;;;10.38;;
61112;SDS011;47184;57.998;56.184;2023-06-04T04:31:54;27.83;;;11.35;;
61112;SDS011;47184;57.998;56.184;2023-06-04T04:34:25;33.03;;;12.73;;
61112;SDS011;47184;57.998;56.184;2023-06-04T04:36:53;22.38;;;10.30;;
61112;SDS011;47184;57.998;56.184;2023-06-04T04:39:22;27.42;;;12.88;;
61112;SDS011;47184;57.998;56.184;2023-06-04T04:41:51;28.23;;;13.88;;
61112;SDS011;47184;57.998;56.184;2023-06-04T04:44:17;27.75;;;12.95;;
61112;SDS011;47184;57.998;56.184;2023-06-04T04:46:44;33.80;;;18.92;;
61112;SDS011;47184;57.998;56.184;2023-06-04T04:49:12;29.90;;;18.20;;
61112;SDS011;47184;57.998;56.184;2023-06-04T04:51:38;26.60;;;15.00;;
61112;SDS011;47184;57.998;56.184;2023-06-04T04:54:04;29.15;;;15.75;;
61112;SDS011;47184;57.998;56.184;2023-06-04T04:56:33;37.70;;;18.30;;
61112;SDS011;47184;57.998;56.184;2023-06-04T04:59:04;34.55;;;17.50;;
61112;SDS011;47184;57.998;56.184;2023-06-04T05:01:30;37.33;;;17.33;;
61112;SDS011;47184;57.998;56.184;2023-06-04T05:03:56;38.13;;;19.88;;
61112;SDS011;47184;57.998;56.184;2023-06-04T05:06:23;53.88;;;26.33;;
61112;SDS011;47184;57.998;56.184;2023-06-04T05:08:49;37.75;;;21.75;;
61112;SDS011;47184;57.998;56.184;2023-06-04T05:11:16;18.30;;;9.00;;
61112;SDS011;47184;57.998;56.184;2023-06-04T05:13:45;28.30;;;13.88;;
61112;SDS011;47184;57.998;56.184;2023-06-04T05:16:12;24.88;;;10.63;;
61112;SDS011;47184;57.998;56.184;2023-06-04T05:18:41;21.42;;;12.15;;
61112;SDS011;47184;57.998;56.184;2023-06-04T05:21:13;24.13;;;10.88;;
61112;SDS011;47184;57.998;56.184;2023-06-04T05:23:45;24.05;;;11.07;;
61112;SDS011;47184;57.998;56.184;2023-06-04T05:26:15;37.47;;;8.90;;
61112;SDS011;47184;57.998;56.184;2023-06-04T05:28:42;14.63;;;10.60;;
61112;SDS011;47184;57.998;56.184;2023-06-04T05:31:12;18.52;;;10.68;;
61112;SDS011;47184;57.998;56.184;2023-06-04T05:33:39;19.30;;;11.80;;
61112;SDS011;47184;57.998;56.184;2023-06-04T05:36:10;19.30;;;10.48;;
61112;SDS011;47184;57.998;56.184;2023-06-04T05:41:13;20.52;;;11.15;;
61112;SDS011;47184;57.998;56.184;2023-06-04T05:43:40;19.60;;;11.48;;
61112;SDS011;47184;57.998;56.184;2023-06-04T05:46:11;23.63;;;11.70;;
61112;SDS011;47184;57.998;56.184;2023-06-04T05:48:39;21.02;;;10.27;;
61112;SDS011;47184;57.998;56.184;2023-06-04T05:51:06;20.23;;;11.40;;
61112;SDS011;47184;57.998;56.184;2023-06-04T05:53:35;21.23;;;9.02;;
61112;SDS011;47184;57.998;56.184;2023-06-04T05:56:01;24.15;;;11.68;;
61112;SDS011;47184;57.998;56.184;2023-06-04T05:58:29;21.38;;;10.75;;
61112;SDS011;47184;57.998;56.184;2023-06-04T06:00:59;20.98;;;9.65;;
61112;SDS011;47184;57.998;56.184;2023-06-04T06:03:27;19.80;;;9.93;;
61112;SDS011;47184;57.998;56.184;2023-06-04T06:05:55;24.08;;;9.18;;
61112;SDS011;47184;57.998;56.184;2023-06-04T06:08:22;19.35;;;8.82;;
61112;SDS011;47184;57.998;56.184;2023-06-04T06:10:49;16.23;;;8.38;;
61112;SDS011;47184;57.998;56.184;2023-06-04T06:13:18;17.10;;;9.32;;
61112;SDS011;47184;57.998;56.184;2023-06-04T06:15:45;19.90;;;10.45;;
61112;SDS011;47184;57.998;56.184;2023-06-04T06:18:14;20.80;;;10.35;;
61112;SDS011;47184;57.998;56.184;2023-06-04T06:20:40;19.40;;;10.05;;
61112;SDS011;47184;57.998;56.184;2023-06-04T06:23:08;24.10;;;10.05;;
61112;SDS011;47184;57.998;56.184;2023-06-04T06:25:37;13.75;;;8.85;;
61112;SDS011;47184;57.998;56.184;2023-06-04T06:30:38;13.50;;;7.13;;
61112;SDS011;47184;57.998;56.184;2023-06-04T06:33:04;17.20;;;9.88;;
61112;SDS011;47184;57.998;56.184;2023-06-04T06:35:31;25.67;;;10.30;;
61112;SDS011;47184;57.998;56.184;2023-06-04T06:37:57;16.42;;;8.90;;
61112;SDS011;47184;57.998;56.184;2023-06-04T06:40:23;18.00;;;9.35;;
61112;SDS011;47184;57.998;56.184;2023-06-04T06:42:50;19.25;;;9.02;;
61112;SDS011;47184;57.998;56.184;2023-06-04T06:45:17;14.05;;;9.43;;
61112;SDS011;47184;57.998;56.184;2023-06-04T06:47:44;18.55;;;10.57;;
61112;SDS011;47184;57.998;56.184;2023-06-04T06:50:11;20.35;;;11.25;;
61112;SDS011;47184;57.998;56.184;2023-06-04T06:52:37;32.83;;;11.52;;
61112;SDS011;47184;57.998;56.184;2023-06-04T06:55:04;13.07;;;10.35;;
61112;SDS011;47184;57.998;56.184;2023-06-04T06:57:31;26.27;;;14.40;;
61112;SDS011;47184;57.998;56.184;2023-06-04T06:59:59;17.50;;;12.10;;
61112;SDS011;47184;57.998;56.184;2023-06-04T07:02:26;25.17;;;11.63;;
61112;SDS011;47184;57.998;56.184;2023-06-04T07:04:52;20.77;;;12.52;;
61112;SDS011;47184;57.998;56.184;2023-06-04T07:07:18;20.30;;;12.38;;
61112;SDS011;47184;57.998;56.184;2023-06-04T07:09:44;21.70;;;12.52;;
61112;SDS011;47184;57.998;56.184;2023-06-04T07:12:10;26.27;;;12.95;;
61112;SDS011;47184;57.998;56.184;2023-06-04T07:14:36;19.13;;;12.68;;
61112;SDS011;47184;57.998;56.184;2023-06-04T07:17:03;21.17;;;11.68;;
61112;SDS011;47184;57.998;56.184;2023-06-04T07:19:29;16.23;;;10.00;;
61112;SDS011;47184;57.998;56.184;2023-06-04T07:21:55;20.00;;;8.95;;
61112;SDS011;47184;57.998;56.184;2023-06-04T07:24:21;19.58;;;8.93;;
61112;SDS011;47184;57.998;56.184;2023-06-04T07:26:48;20.05;;;11.52;;
61112;SDS011;47184;57.998;56.184;2023-06-04T07:29:15;21.52;;;12.18;;
61112;SDS011;47184;57.998;56.184;2023-06-04T07:31:41;17.30;;;11.05;;
61112;SDS011;47184;57.998;56.184;2023-06-04T07:34:07;14.98;;;9.80;;
61112;SDS011;47184;57.998;56.184;2023-06-04T07:36:33;14.85;;;11.52;;
61112;SDS011;47184;57.998;56.184;2023-06-04T07:38:59;28.83;;;11.20;;
61112;SDS011;47184;57.998;56.184;2023-06-04T07:41:25;20.70;;;10.43;;
61112;SDS011;47184;57.998;56.184;2023-06-04T07:43:52;26.73;;;11.90;;
61112;SDS011;47184;57.998;56.184;2023-06-04T07:46:18;23.35;;;11.50;;
61112;SDS011;47184;57.998;56.184;2023-06-04T07:48:44;19.92;;;12.00;;
61112;SDS011;47184;57.998;56.184;2023-06-04T07:51:12;20.60;;;12.35;;
61112;SDS011;47184;57.998;56.184;2023-06-04T07:53:39;18.70;;;9.52;;
61112;SDS011;47184;57.998;56.184;2023-06-04T07:56:06;20.77;;;10.30;;
61112;SDS011;47184;57.998;56.184;2023-06-04T07:58:33;15.00;;;9.43;;
61112;SDS011;47184;57.998;56.184;2023-06-04T08:01:00;34.17;;;16.05;;
61112;SDS011;47184;57.998;56.184;2023-06-04T08:03:26;22.63;;;12.75;;
61112;SDS011;47184;57.998;56.184;2023-06-04T08:05:52;21.98;;;12.15;;
61112;SDS011;47184;57.998;56.184;2023-06-04T08:08:19;18.92;;;11.98;;
61112;SDS011;47184;57.998;56.184;2023-06-04T08:10:45;19.90;;;13.05;;
61112;SDS011;47184;57.998;56.184;2023-06-04T08:13:11;23.00;;;12.77;;
61112;SDS011;47184;57.998;56.184;2023-06-04T08:15:38;20.40;;;13.43;;
61112;SDS011;47184;57.998;56.184;2023-06-04T08:18:24;25.63;;;13.70;;
61112;SDS011;47184;57.998;56.184;2023-06-04T08:21:09;19.65;;;13.57;;
61112;SDS011;47184;57.998;56.184;2023-06-04T08:23:58;19.17;;;12.10;;
61112;SDS011;47184;57.998;56.184;2023-06-04T08:26:44;17.48;;;12.98;;
61112;SDS011;47184;57.998;56.184;2023-06-04T08:29:16;21.63;;;13.10;;
61112;SDS011;47184;57.998;56.184;2023-06-04T08:31:43;27.55;;;13.48;;
61112;SDS011;47184;57.998;56.184;2023-06-04T08:34:22;18.50;;;13.27;;
61112;SDS011;47184;57.998;56.184;2023-06-04T08:36:49;19.65;;;13.40;;
61112;SDS011;47184;57.998;56.184;2023-06-04T08:39:15;25.00;;;12.70;;
61112;SDS011;47184;57.998;56.184;2023-06-04T08:41:45;20.35;;;12.80;;
61112;SDS011;47184;57.998;56.184;2023-06-04T08:44:16;20.63;;;11.40;;
61112;SDS011;47184;57.998;56.184;2023-06-04T08:46:50;26.25;;;12.55;;
61112;SDS011;47184;57.998;56.184;2023-06-04T08:49:19;19.35;;;11.68;;
61112;SDS011;47184;57.998;56.184;2023-06-04T08:51:47;20.17;;;12.70;;
61112;SDS011;47184;57.998;56.184;2023-06-04T08:54:14;17.23;;;9.30;;
61112;SDS011;47184;57.998;56.184;2023-06-04T08:56:42;17.13;;;9.15;;
61112;SDS011;47184;57.998;56.184;2023-06-04T08:59:10;15.50;;;9.63;;
61112;SDS011;47184;57.998;56.184;2023-06-04T09:01:36;19.80;;;10.32;;
61112;SDS011;47184;57.998;56.184;2023-06-04T09:04:06;18.73;;;10.65;;
61112;SDS011;47184;57.998;56.184;2023-06-04T09:06:33;19.50;;;9.57;;
61112;SDS011;47184;57.998;56.184;2023-06-04T09:09:01;19.58;;;11.20;;
61112;SDS011;47184;57.998;56.184;2023-06-04T09:11:33;18.88;;;10.88;;
61112;SDS011;47184;57.998;56.184;2023-06-04T09:14:02;15.48;;;9.27;;
61112;SDS011;47184;57.998;56.184;2023-06-04T09:16:48;11.73;;;8.43;;
61112;SDS011;47184;57.998;56.184;2023-06-04T09:19:17;16.53;;;10.07;;
61112;SDS011;47184;57.998;56.184;2023-06-04T09:21:48;13.98;;;10.38;;
61112;SDS011;47184;57.998;56.184;2023-06-04T09:24:25;15.68;;;9.90;;
61112;SDS011;47184;57.998;56.184;2023-06-04T09:27:21;14.60;;;9.40;;
61112;SDS011;47184;57.998;56.184;2023-06-04T09:29:49;14.60;;;7.57;;
61112;SDS011;47184;57.998;56.184;2023-06-04T09:32:25;10.68;;;7.82;;
61112;SDS011;47184;57.998;56.184;2023-06-04T09:35:08;14.18;;;7.60;;
61112;SDS011;47184;57.998;56.184;2023-06-04T09:37:35;19.67;;;6.68;;
61112;SDS011;47184;57.998;56.184;2023-06-04T09:40:01;15.55;;;7.90;;
61112;SDS011;47184;57.998;56.184;2023-06-04T09:42:30;13.40;;;7.38;;
61112;SDS011;47184;57.998;56.184;2023-06-04T09:45:10;14.77;;;5.57;;
61112;SDS011;47184;57.998;56.184;2023-06-04T09:47:41;11.23;;;6.95;;
61112;SDS011;47184;57.998;56.184;2023-06-04T09:50:13;13.65;;;6.97;;
61112;SDS011;47184;57.998;56.184;2023-06-04T09:52:39;17.52;;;7.25;;
61112;SDS011;47184;57.998;56.184;2023-06-04T09:55:15;9.07;;;5.00;;
61112;SDS011;47184;57.998;56.184;2023-06-04T09:57:46;7.95;;;4.13;;
61112;SDS011;47184;57.998;56.184;2023-06-04T10:00:19;7.68;;;4.15;;
61112;SDS011;47184;57.998;56.184;2023-06-04T10:02:48;9.17;;;4.33;;
61112;SDS011;47184;57.998;56.184;2023-06-04T10:05:16;8.63;;;4.82;;
61112;SDS011;47184;57.998;56.184;2023-06-04T10:07:46;7.15;;;3.30;;
61112;SDS011;47184;57.998;56.184;2023-06-04T10:10:15;7.28;;;4.25;;
61112;SDS011;47184;57.998;56.184;2023-06-04T10:12:45;12.65;;;5.40;;
61112;SDS011;47184;57.998;56.184;2023-06-04T10:15:18;8.73;;;4.65;;
61112;SDS011;47184;57.998;56.184;2023-06-04T10:17:46;13.70;;;4.80;;
61112;SDS011;47184;57.998;56.184;2023-06-04T10:20:14;11.05;;;5.07;;
61112;SDS011;47184;57.998;56.184;2023-06-04T10:22:40;8.68;;;4.43;;
61112;SDS011;47184;57.998;56.184;2023-06-04T10:25:07;13.30;;;4.78;;
61112;SDS011;47184;57.998;56.184;2023-06-04T10:27:35;15.32;;;5.47;;
61112;SDS011;47184;57.998;56.184;2023-06-04T10:30:02;14.93;;;5.07;;
61112;SDS011;47184;57.998;56.184;2023-06-04T10:32:32;13.40;;;4.70;;
61112;SDS011;47184;57.998;56.184;2023-06-04T10:34:58;10.88;;;4.18;;
61112;SDS011;47184;57.998;56.184;2023-06-04T10:37:30;18.25;;;6.15;;
61112;SDS011;47184;57.998;56.184;2023-06-04T10:39:56;17.83;;;8.10;;
61112;SDS011;47184;57.998;56.184;2023-06-04T10:42:23;12.85;;;7.43;;
61112;SDS011;47184;57.998;56.184;2023-06-04T10:44:52;20.23;;;9.80;;
61112;SDS011;47184;57.998;56.184;2023-06-04T10:49:46;22.85;;;9.30;;
61112;SDS011;47184;57.998;56.184;2023-06-04T10:52:12;17.05;;;9.32;;
61112;SDS011;47184;57.998;56.184;2023-06-04T10:54:39;13.18;;;9.13;;
61112;SDS011;47184;57.998;56.184;2023-06-04T10:57:10;11.27;;;6.53;;
61112;SDS011;47184;57.998;56.184;2023-06-04T10:59:38;10.43;;;5.93;;
61112;SDS011;47184;57.998;56.184;2023-06-04T11:02:08;14.77;;;6.88;;
61112;SDS011;47184;57.998;56.184;2023-06-04T11:04:35;11.00;;;6.97;;
61112;SDS011;47184;57.998;56.184;2023-06-04T11:07:06;18.40;;;7.05;;
61112;SDS011;47184;57.998;56.184;2023-06-04T11:09:36;13.60;;;7.32;;
61112;SDS011;47184;57.998;56.184;2023-06-04T11:12:04;18.95;;;8.52;;
61112;SDS011;47184;57.998;56.184;2023-06-04T11:14:31;13.55;;;8.25;;
61112;SDS011;47184;57.998;56.184;2023-06-04T11:16:57;18.60;;;7.78;;
61112;SDS011;47184;57.998;56.184;2023-06-04T11:19:35;26.17;;;8.05;;
61112;SDS011;47184;57.998;56.184;2023-06-04T11:22:02;15.25;;;7.53;;
61112;SDS011;47184;57.998;56.184;2023-06-04T11:24:28;22.08;;;8.60;;
61112;SDS011;47184;57.998;56.184;2023-06-04T11:26:56;15.52;;;7.43;;
61112;SDS011;47184;57.998;56.184;2023-06-04T11:29:25;15.73;;;7.65;;
61112;SDS011;47184;57.998;56.184;2023-06-04T11:31:51;24.88;;;7.30;;
61112;SDS011;47184;57.998;56.184;2023-06-04T11:34:24;13.30;;;5.95;;
61112;SDS011;47184;57.998;56.184;2023-06-04T11:36:54;12.98;;;6.80;;
61112;SDS011;47184;57.998;56.184;2023-06-04T11:39:21;13.32;;;7.60;;
61112;SDS011;47184;57.998;56.184;2023-06-04T11:41:48;8.38;;;5.32;;
61112;SDS011;47184;57.998;56.184;2023-06-04T11:44:18;10.38;;;6.20;;
61112;SDS011;47184;57.998;56.184;2023-06-04T11:46:45;10.20;;;5.75;;
61112;SDS011;47184;57.998;56.184;2023-06-04T11:49:17;8.82;;;5.40;;
61112;SDS011;47184;57.998;56.184;2023-06-04T11:51:45;16.15;;;7.75;;
61112;SDS011;47184;57.998;56.184;2023-06-04T11:54:21;13.55;;;7.03;;
61112;SDS011;47184;57.998;56.184;2023-06-04T11:56:48;13.50;;;6.25;;
61112;SDS011;47184;57.998;56.184;2023-06-04T11:59:16;16.45;;;6.82;;
61112;SDS011;47184;57.998;56.184;2023-06-04T12:01:44;12.13;;;7.53;;
61112;SDS011;47184;57.998;56.184;2023-06-04T12:04:14;15.73;;;8.45;;
61112;SDS011;47184;57.998;56.184;2023-06-04T12:06:51;26.83;;;8.20;;
61112;SDS011;47184;57.998;56.184;2023-06-04T12:09:22;15.80;;;6.97;;
61112;SDS011;47184;57.998;56.184;2023-06-04T12:11:49;21.98;;;8.20;;
61112;SDS011;47184;57.998;56.184;2023-06-04T12:14:16;18.48;;;7.78;;
61112;SDS011;47184;57.998;56.184;2023-06-04T12:16:59;11.35;;;6.18;;
61112;SDS011;47184;57.998;56.184;2023-06-04T12:19:31;6.78;;;4.82;;
61112;SDS011;47184;57.998;56.184;2023-06-04T12:21:59;11.75;;;5.65;;
61112;SDS011;47184;57.998;56.184;2023-06-04T12:24:29;12.73;;;5.80;;
61112;SDS011;47184;57.998;56.184;2023-06-04T12:27:05;17.25;;;5.97;;
61112;SDS011;47184;57.998;56.184;2023-06-04T12:29:34;10.70;;;5.45;;
61112;SDS011;47184;57.998;56.184;2023-06-04T12:32:18;13.13;;;6.65;;
61112;SDS011;47184;57.998;56.184;2023-06-04T12:34:46;5.55;;;3.38;;
61112;SDS011;47184;57.998;56.184;2023-06-04T12:37:12;19.73;;;6.97;;
61112;SDS011;47184;57.998;56.184;2023-06-04T12:39:39;11.73;;;5.82;;
61112;SDS011;47184;57.998;56.184;2023-06-04T12:42:06;8.85;;;6.32;;
61112;SDS011;47184;57.998;56.184;2023-06-04T12:44:37;11.70;;;5.28;;
61112;SDS011;47184;57.998;56.184;2023-06-04T12:47:04;24.77;;;6.13;;
61112;SDS011;47184;57.998;56.184;2023-06-04T12:49:31;7.25;;;4.80;;
61112;SDS011;47184;57.998;56.184;2023-06-04T12:51:58;11.40;;;6.18;;
61112;SDS011;47184;57.998;56.184;2023-06-04T12:54:24;7.35;;;3.92;;
61112;SDS011;47184;57.998;56.184;2023-06-04T12:56:50;11.18;;;5.72;;
61112;SDS011;47184;57.998;56.184;2023-06-04T12:59:16;5.40;;;2.78;;
61112;SDS011;47184;57.998;56.184;2023-06-04T13:01:42;3.17;;;2.88;;
61112;SDS011;47184;57.998;56.184;2023-06-04T13:04:09;4.10;;;2.45;;
61112;SDS011;47184;57.998;56.184;2023-06-04T13:06:35;8.30;;;5.70;;
61112;SDS011;47184;57.998;56.184;2023-06-04T13:09:01;6.43;;;4.40;;
61112;SDS011;47184;57.998;56.184;2023-06-04T13:11:29;9.95;;;5.40;;
61112;SDS011;47184;57.998;56.184;2023-06-04T13:13:55;10.38;;;4.35;;
61112;SDS011;47184;57.998;56.184;2023-06-04T13:16:21;13.00;;;4.70;;
61112;SDS011;47184;57.998;56.184;2023-06-04T13:18:47;7.07;;;4.13;;
61112;SDS011;47184;57.998;56.184;2023-06-04T13:21:14;10.77;;;5.22;;
61112;SDS011;47184;57.998;56.184;2023-06-04T13:23:40;9.85;;;5.47;;
61112;SDS011;47184;57.998;56.184;2023-06-04T13:26:07;6.45;;;2.97;;
61112;SDS011;47184;57.998;56.184;2023-06-04T13:28:33;7.55;;;4.20;;
61112;SDS011;47184;57.998;56.184;2023-06-04T13:31:00;9.65;;;4.57;;
61112;SDS011;47184;57.998;56.184;2023-06-04T13:33:26;14.93;;;4.88;;
61112;SDS011;47184;57.998;56.184;2023-06-04T13:35:53;10.80;;;5.18;;
61112;SDS011;47184;57.998;56.184;2023-06-04T13:38:19;9.45;;;4.72;;
61112;SDS011;47184;57.998;56.184;2023-06-04T13:40:45;11.25;;;5.20;;
61112;SDS011;47184;57.998;56.184;2023-06-04T13:43:11;7.53;;;3.95;;
61112;SDS011;47184;57.998;56.184;2023-06-04T13:45:37;7.53;;;4.20;;
61112;SDS011;47184;57.998;56.184;2023-06-04T13:48:05;12.30;;;4.93;;
61112;SDS011;47184;57.998;56.184;2023-06-04T13:50:33;8.70;;;4.53;;
61112;SDS011;47184;57.998;56.184;2023-06-04T13:52:59;9.02;;;4.50;;
61112;SDS011;47184;57.998;56.184;2023-06-04T13:55:25;9.88;;;4.57;;
61112;SDS011;47184;57.998;56.184;2023-06-04T13:57:51;7.97;;;2.67;;
61112;SDS011;47184;57.998;56.184;2023-06-04T14:00:17;5.45;;;2.78;;
61112;SDS011;47184;57.998;56.184;2023-06-04T14:02:46;9.63;;;3.28;;
61112;SDS011;47184;57.998;56.184;2023-06-04T14:05:13;3.72;;;2.38;;
61112;SDS011;47184;57.998;56.184;2023-06-04T14:07:40;6.05;;;3.35;;
61112;SDS011;47184;57.998;56.184;2023-06-04T14:10:07;7.18;;;3.13;;
61112;SDS011;47184;57.998;56.184;2023-06-04T14:12:34;5.75;;;3.90;;
61112;SDS011;47184;57.998;56.184;2023-06-04T14:15:01;6.85;;;3.03;;
61112;SDS011;47184;57.998;56.184;2023-06-04T14:17:30;7.22;;;2.83;;
61112;SDS011;47184;57.998;56.184;2023-06-04T14:19:56;7.25;;;3.88;;
61112;SDS011;47184;57.998;56.184;2023-06-04T14:22:22;8.15;;;3.90;;
61112;SDS011;47184;57.998;56.184;2023-06-04T14:24:48;14.02;;;4.13;;
61112;SDS011;47184;57.998;56.184;2023-06-04T14:27:15;6.20;;;3.30;;
61112;SDS011;47184;57.998;56.184;2023-06-04T14:29:41;7.70;;;3.78;;
61112;SDS011;47184;57.998;56.184;2023-06-04T14:32:07;6.95;;;3.67;;
61112;SDS011;47184;57.998;56.184;2023-06-04T14:34:33;9.07;;;4.28;;
61112;SDS011;47184;57.998;56.184;2023-06-04T14:36:59;5.57;;;3.58;;